createdAt,value
2018-06-11T00:00:56.898Z,985.98
2018-06-11T00:01:56.895Z,985.92
2018-06-11T00:02:56.895Z,985.91
2018-06-11T00:03:56.899Z,985.89
2018-06-11T00:04:56.901Z,985.83
2018-06-11T00:05:56.903Z,985.8
2018-06-11T00:06:56.905Z,985.81
2018-06-11T00:07:56.905Z,985.75
2018-06-11T00:08:56.917Z,985.76
2018-06-11T00:09:56.912Z,985.76
2018-06-11T00:10:56.911Z,985.7
2018-06-11T00:11:56.916Z,985.76
2018-06-11T00:12:57.768Z,985.73
2018-06-11T00:13:56.919Z,985.74
2018-06-11T00:14:56.923Z,985.8
2018-06-11T00:15:56.922Z,985.83
2018-06-11T00:16:56.924Z,985.78
2018-06-11T00:17:56.927Z,985.8
2018-06-11T00:18:56.938Z,985.82
2018-06-11T00:19:56.929Z,985.83
2018-06-11T00:20:56.931Z,985.85
2018-06-11T00:21:56.932Z,985.78
2018-06-11T00:22:56.963Z,985.78
2018-06-11T00:23:56.943Z,985.73
2018-06-11T00:24:56.946Z,985.75
2018-06-11T00:25:56.951Z,985.7
2018-06-11T00:26:56.944Z,985.74
2018-06-11T00:27:56.945Z,985.75
2018-06-11T00:28:56.947Z,985.74
2018-06-11T00:29:56.946Z,985.73
2018-06-11T00:30:56.952Z,985.72
2018-06-11T00:31:56.952Z,985.72
2018-06-11T00:32:56.954Z,985.73
2018-06-11T00:33:56.957Z,985.76
2018-06-11T00:34:56.959Z,985.69
2018-06-11T00:35:56.960Z,985.69
2018-06-11T00:36:56.962Z,985.69
2018-06-11T00:37:56.963Z,985.67
2018-06-11T00:38:56.970Z,985.66
2018-06-11T00:39:56.971Z,985.6
2018-06-11T00:40:56.975Z,985.58
2018-06-11T00:41:56.975Z,985.55
2018-06-11T00:42:56.978Z,985.52
2018-06-11T00:43:56.977Z,985.48
2018-06-11T00:44:56.980Z,985.52
2018-06-11T00:45:56.987Z,985.49
2018-06-11T00:46:56.983Z,985.52
2018-06-11T00:47:56.997Z,985.49
2018-06-11T00:48:56.986Z,985.51
2018-06-11T00:49:56.989Z,985.47
2018-06-11T00:50:56.992Z,985.49
2018-06-11T00:51:56.994Z,985.47
2018-06-11T00:52:56.995Z,985.45
2018-06-11T00:53:57.006Z,985.47
2018-06-11T00:54:57.001Z,985.43
2018-06-11T00:55:57.006Z,985.42
2018-06-11T00:56:57.021Z,985.42
2018-06-11T00:57:57.008Z,985.4
2018-06-11T00:58:57.011Z,985.38
2018-06-11T00:59:57.012Z,985.41
2018-06-11T01:00:57.014Z,985.35
2018-06-11T01:01:57.017Z,985.35
2018-06-11T01:02:57.021Z,985.34
2018-06-11T01:03:57.055Z,985.38
2018-06-11T01:04:57.019Z,985.36
2018-06-11T01:05:57.022Z,985.37
2018-06-11T01:06:57.024Z,985.34
2018-06-11T01:07:57.024Z,985.27
2018-06-11T01:08:57.028Z,985.24
2018-06-11T01:09:57.032Z,985.18
2018-06-11T01:10:57.036Z,985.17
2018-06-11T01:11:57.032Z,985.19
2018-06-11T01:12:57.037Z,985.15
2018-06-11T01:13:57.038Z,985.14
2018-06-11T01:14:57.039Z,985.2
2018-06-11T01:15:57.040Z,985.22
2018-06-11T01:16:57.042Z,985.24
2018-06-11T01:17:57.045Z,985.22
2018-06-11T01:18:57.043Z,985.27
2018-06-11T01:19:57.046Z,985.21
2018-06-11T01:20:57.050Z,985.2
2018-06-11T01:21:57.052Z,985.16
2018-06-11T01:22:57.052Z,985.13
2018-06-11T01:23:57.053Z,985.14
2018-06-11T01:24:57.068Z,985.17
2018-06-11T01:25:57.059Z,985.13
2018-06-11T01:26:57.058Z,985.1
2018-06-11T01:27:57.063Z,985.15
2018-06-11T01:28:57.064Z,985.15
2018-06-11T01:29:57.063Z,985.14
2018-06-11T01:30:57.066Z,985.13
2018-06-11T01:31:57.067Z,985.08
2018-06-11T01:32:57.069Z,985.11
2018-06-11T01:33:57.075Z,985.09
2018-06-11T01:34:57.077Z,985.14
2018-06-11T01:35:57.076Z,985.1
2018-06-11T01:36:57.082Z,985.1
2018-06-11T01:37:57.084Z,985.05
2018-06-11T01:38:57.089Z,985.04
2018-06-11T01:39:57.098Z,985.04
2018-06-11T01:40:57.093Z,985.03
2018-06-11T01:41:57.091Z,985.03
2018-06-11T01:42:57.097Z,985.04
2018-06-11T01:43:57.091Z,985.03
2018-06-11T01:44:57.095Z,985.01
2018-06-11T01:45:57.115Z,985.06
2018-06-11T01:46:57.121Z,985.01
2018-06-11T01:47:57.109Z,985.01
2018-06-11T01:48:57.096Z,985.01
2018-06-11T01:49:57.098Z,984.97
2018-06-11T01:50:57.098Z,984.94
2018-06-11T01:51:57.101Z,984.92
2018-06-11T01:52:57.106Z,984.91
2018-06-11T01:53:57.108Z,984.89
2018-06-11T01:54:57.108Z,984.86
2018-06-11T01:55:57.205Z,984.82
2018-06-11T01:56:57.112Z,984.81
2018-06-11T01:57:57.111Z,984.85
2018-06-11T01:59:00.067Z,984.84
2018-06-11T01:59:57.120Z,984.82
2018-06-11T02:00:57.121Z,984.85
2018-06-11T02:01:57.118Z,984.86
2018-06-11T02:02:57.119Z,984.88
2018-06-11T02:03:57.121Z,984.92
2018-06-11T02:04:57.122Z,984.95
2018-06-11T02:05:57.126Z,984.98
2018-06-11T02:06:57.131Z,985
2018-06-11T02:07:57.143Z,984.96
2018-06-11T02:08:57.131Z,984.96
2018-06-11T02:09:57.134Z,984.94
2018-06-11T02:10:57.135Z,984.9
2018-06-11T02:11:57.135Z,984.88
2018-06-11T02:12:57.139Z,984.86
2018-06-11T02:13:57.155Z,984.88
2018-06-11T02:14:57.157Z,984.88
2018-06-11T02:15:57.144Z,984.92
2018-06-11T02:16:57.147Z,984.93
2018-06-11T02:17:57.147Z,984.93
2018-06-11T02:18:57.157Z,984.9
2018-06-11T02:19:57.161Z,984.97
2018-06-11T02:20:57.151Z,984.95
2018-06-11T02:21:57.180Z,984.93
2018-06-11T02:22:57.155Z,984.92
2018-06-11T02:23:57.157Z,984.93
2018-06-11T02:24:57.160Z,984.91
2018-06-11T02:25:57.163Z,984.85
2018-06-11T02:26:57.164Z,984.84
2018-06-11T02:27:57.166Z,984.82
2018-06-11T02:28:57.167Z,984.82
2018-06-11T02:29:57.168Z,984.85
2018-06-11T02:30:57.175Z,984.86
2018-06-11T02:31:57.175Z,984.83
2018-06-11T02:32:57.173Z,984.86
2018-06-11T02:33:57.178Z,984.87
2018-06-11T02:34:57.178Z,984.88
2018-06-11T02:35:57.180Z,984.9
2018-06-11T02:36:57.184Z,984.89
2018-06-11T02:37:57.185Z,984.88
2018-06-11T02:38:57.185Z,984.89
2018-06-11T02:39:57.195Z,984.87
2018-06-11T02:40:57.189Z,984.91
2018-06-11T02:41:57.194Z,984.89
2018-06-11T02:42:57.193Z,984.91
2018-06-11T02:43:57.199Z,984.9
2018-06-11T02:44:57.200Z,984.86
2018-06-11T02:45:57.199Z,984.88
2018-06-11T02:46:57.201Z,984.89
2018-06-11T02:47:57.203Z,984.86
2018-06-11T02:48:57.206Z,984.87
2018-06-11T02:49:57.205Z,984.85
2018-06-11T02:50:57.206Z,984.9
2018-06-11T02:51:57.214Z,984.91
2018-06-11T02:52:57.223Z,984.88
2018-06-11T02:53:57.220Z,984.87
2018-06-11T02:54:57.215Z,984.85
2018-06-11T02:55:57.224Z,984.83
2018-06-11T02:56:57.243Z,984.83
2018-06-11T02:57:57.220Z,984.81
2018-06-11T02:58:57.229Z,984.81
2018-06-11T02:59:57.234Z,984.77
2018-06-11T03:00:57.225Z,984.77
2018-06-11T03:01:57.227Z,984.75
2018-06-11T03:02:57.231Z,984.78
2018-06-11T03:03:57.245Z,984.77
2018-06-11T03:04:57.236Z,984.8
2018-06-11T03:05:57.248Z,984.76
2018-06-11T03:06:57.244Z,984.79
2018-06-11T03:07:57.246Z,984.82
2018-06-11T03:08:57.250Z,984.82
2018-06-11T03:09:57.249Z,984.82
2018-06-11T03:10:57.252Z,984.89
2018-06-11T03:11:57.249Z,984.96
2018-06-11T03:12:57.253Z,984.95
2018-06-11T03:13:57.251Z,984.97
2018-06-11T03:14:57.252Z,984.93
2018-06-11T03:15:57.256Z,984.99
2018-06-11T03:16:57.254Z,984.96
2018-06-11T03:17:57.254Z,984.96
2018-06-11T03:18:57.264Z,984.94
2018-06-11T03:19:57.257Z,984.9
2018-06-11T03:20:57.263Z,984.83
2018-06-11T03:21:57.269Z,984.87
2018-06-11T03:22:57.263Z,984.83
2018-06-11T03:23:57.266Z,984.88
2018-06-11T03:24:57.269Z,984.83
2018-06-11T03:25:57.278Z,984.87
2018-06-11T03:26:57.275Z,984.82
2018-06-11T03:27:57.280Z,984.88
2018-06-11T03:28:57.280Z,984.89
2018-06-11T03:29:57.281Z,984.91
2018-06-11T03:30:57.282Z,984.89
2018-06-11T03:31:57.324Z,984.92
2018-06-11T03:32:57.282Z,984.95
2018-06-11T03:33:57.281Z,984.98
2018-06-11T03:34:57.282Z,984.99
2018-06-11T03:35:57.286Z,985
2018-06-11T03:36:57.287Z,985.03
2018-06-11T03:37:57.287Z,984.97
2018-06-11T03:38:57.287Z,984.98
2018-06-11T03:39:57.292Z,984.99
2018-06-11T03:40:57.298Z,985.03
2018-06-11T03:41:57.295Z,984.99
2018-06-11T03:42:57.297Z,984.97
2018-06-11T03:43:57.299Z,985
2018-06-11T03:44:57.300Z,984.99
2018-06-11T03:45:57.308Z,984.98
2018-06-11T03:46:57.306Z,984.97
2018-06-11T03:47:57.312Z,984.94
2018-06-11T03:48:57.313Z,984.93
2018-06-11T03:49:57.308Z,984.92
2018-06-11T03:50:57.312Z,984.94
2018-06-11T03:51:57.312Z,984.95
2018-06-11T03:52:57.311Z,984.95
2018-06-11T03:53:57.313Z,985.04
2018-06-11T03:54:57.329Z,984.98
2018-06-11T03:55:57.322Z,984.97
2018-06-11T03:56:57.332Z,984.96
2018-06-11T03:57:57.331Z,984.95
2018-06-11T03:58:57.333Z,984.91
2018-06-11T03:59:57.581Z,984.91
2018-06-11T04:00:57.334Z,984.93
2018-06-11T04:01:57.339Z,984.93
2018-06-11T04:02:57.335Z,984.89
2018-06-11T04:03:57.341Z,984.9
2018-06-11T04:04:57.336Z,984.89
2018-06-11T04:05:57.352Z,984.91
2018-06-11T04:06:57.344Z,984.92
2018-06-11T04:07:57.345Z,984.91
2018-06-11T04:08:57.348Z,984.97
2018-06-11T04:09:57.353Z,985.02
2018-06-11T04:10:57.437Z,985.03
2018-06-11T04:11:57.353Z,985.03
2018-06-11T04:12:57.357Z,985.03
2018-06-11T04:13:57.369Z,985.05
2018-06-11T04:14:57.413Z,985.05
2018-06-11T04:15:57.363Z,985.11
2018-06-11T04:16:57.368Z,985.04
2018-06-11T04:17:57.372Z,984.99
2018-06-11T04:18:57.373Z,985.02
2018-06-11T04:19:57.377Z,985.03
2018-06-11T04:20:57.381Z,985.03
2018-06-11T04:21:57.382Z,984.99
2018-06-11T04:22:57.405Z,985.01
2018-06-11T04:23:57.388Z,984.99
2018-06-11T04:24:57.396Z,985
2018-06-11T04:25:57.402Z,984.99
2018-06-11T04:26:57.402Z,984.92
2018-06-11T04:27:57.404Z,984.94
2018-06-11T04:28:57.409Z,984.88
2018-06-11T04:29:57.412Z,984.93
2018-06-11T04:30:57.414Z,984.92
2018-06-11T04:31:57.425Z,984.93
2018-06-11T04:32:57.425Z,984.93
2018-06-11T04:33:57.428Z,984.92
2018-06-11T04:34:57.433Z,984.93
2018-06-11T04:35:57.460Z,984.83
2018-06-11T04:36:57.440Z,984.82
2018-06-11T04:37:57.452Z,984.79
2018-06-11T04:38:57.449Z,984.81
2018-06-11T04:39:57.536Z,984.76
2018-06-11T04:40:57.461Z,984.8
2018-06-11T04:41:57.460Z,984.79
2018-06-11T04:42:57.465Z,984.78
2018-06-11T04:43:57.470Z,984.81
2018-06-11T04:44:57.473Z,984.78
2018-06-11T04:45:57.481Z,984.74
2018-06-11T04:46:57.486Z,984.73
2018-06-11T04:47:57.487Z,984.76
2018-06-11T04:48:57.490Z,984.8
2018-06-11T04:49:57.495Z,984.76
2018-06-11T04:50:57.506Z,984.8
2018-06-11T04:51:57.504Z,984.79
2018-06-11T04:52:57.508Z,984.8
2018-06-11T04:53:57.515Z,984.79
2018-06-11T04:54:57.520Z,984.78
2018-06-11T04:55:57.525Z,984.79
2018-06-11T04:56:57.531Z,984.71
2018-06-11T04:57:57.536Z,984.71
2018-06-11T04:58:57.541Z,984.73
2018-06-11T04:59:57.602Z,984.71
2018-06-11T05:00:57.551Z,984.64
2018-06-11T05:01:57.554Z,984.65
2018-06-11T05:02:57.559Z,984.58
2018-06-11T05:03:57.566Z,984.59
2018-06-11T05:04:57.572Z,984.64
2018-06-11T05:05:57.579Z,984.61
2018-06-11T05:06:57.580Z,984.61
2018-06-11T05:07:57.588Z,984.59
2018-06-11T05:08:57.594Z,984.56
2018-06-11T05:09:57.597Z,984.62
2018-06-11T05:10:57.604Z,984.59
2018-06-11T05:11:57.612Z,984.57
2018-06-11T05:12:57.623Z,984.56
2018-06-11T05:13:57.621Z,984.54
2018-06-11T05:14:57.676Z,984.53
2018-06-11T05:15:57.634Z,984.51
2018-06-11T05:16:57.639Z,984.49
2018-06-11T05:17:57.645Z,984.51
2018-06-11T05:18:57.649Z,984.49
2018-06-11T05:19:57.653Z,984.51
2018-06-11T05:20:57.660Z,984.49
2018-06-11T05:21:57.670Z,984.46
2018-06-11T05:22:57.678Z,984.45
2018-06-11T05:23:57.682Z,984.5
2018-06-11T05:24:57.688Z,984.46
2018-06-11T05:25:57.703Z,984.46
2018-06-11T05:26:57.699Z,984.44
2018-06-11T05:27:57.703Z,984.43
2018-06-11T05:28:57.708Z,984.44
2018-06-11T05:29:57.716Z,984.47
2018-06-11T05:30:57.757Z,984.46
2018-06-11T05:31:57.728Z,984.47
2018-06-11T05:32:57.735Z,984.38
2018-06-11T05:33:57.744Z,984.34
2018-06-11T05:34:57.747Z,984.37
2018-06-11T05:35:57.759Z,984.33
2018-06-11T05:36:57.757Z,984.36
2018-06-11T05:37:57.777Z,984.42
2018-06-11T05:38:57.770Z,984.42
2018-06-11T05:39:57.788Z,984.43
2018-06-11T05:40:57.801Z,984.49
2018-06-11T05:41:57.789Z,984.49
2018-06-11T05:42:57.794Z,984.52
2018-06-11T05:43:57.797Z,984.52
2018-06-11T05:44:57.805Z,984.5
2018-06-11T05:45:57.811Z,984.61
2018-06-11T05:46:57.820Z,984.61
2018-06-11T05:47:57.846Z,984.61
2018-06-11T05:48:57.825Z,984.6
2018-06-11T05:49:57.833Z,984.61
2018-06-11T05:50:57.837Z,984.6
2018-06-11T05:51:57.845Z,984.61
2018-06-11T05:52:57.848Z,984.62
2018-06-11T05:53:57.854Z,984.57
2018-06-11T05:54:57.861Z,984.61
2018-06-11T05:55:57.866Z,984.69
2018-06-11T05:56:57.873Z,984.64
2018-06-11T05:57:57.884Z,984.64
2018-06-11T05:58:57.886Z,984.64
2018-06-11T05:59:57.890Z,984.65
2018-06-11T06:00:57.895Z,984.61
2018-06-11T06:01:57.906Z,984.66
2018-06-11T06:02:57.907Z,984.67
2018-06-11T06:03:57.912Z,984.7
2018-06-11T06:04:57.919Z,984.7
2018-06-11T06:05:57.923Z,984.74
2018-06-11T06:06:57.934Z,984.76
2018-06-11T06:07:57.935Z,984.73
2018-06-11T06:08:57.941Z,984.78
2018-06-11T06:09:57.955Z,984.75
2018-06-11T06:10:57.955Z,984.74
2018-06-11T06:11:57.960Z,984.71
2018-06-11T06:12:57.967Z,984.72
2018-06-11T06:13:57.972Z,984.73
2018-06-11T06:14:58.031Z,984.72
2018-06-11T06:15:57.986Z,984.74
2018-06-11T06:16:57.992Z,984.81
2018-06-11T06:17:58.000Z,984.87
2018-06-11T06:18:58.006Z,984.9
2018-06-11T06:19:58.013Z,984.87
2018-06-11T06:20:58.021Z,984.93
2018-06-11T06:21:58.045Z,984.91
2018-06-11T06:22:58.033Z,984.96
2018-06-11T06:23:58.039Z,984.93
2018-06-11T06:24:58.062Z,984.96
2018-06-11T06:25:58.055Z,984.96
2018-06-11T06:26:58.067Z,985.06
2018-06-11T06:27:58.072Z,985.01
2018-06-11T06:28:58.081Z,985.04
2018-06-11T06:29:58.081Z,984.98
2018-06-11T06:30:58.089Z,984.93
2018-06-11T06:31:58.097Z,984.82
2018-06-11T06:32:58.103Z,984.85
2018-06-11T06:33:58.112Z,984.82
2018-06-11T06:34:58.125Z,984.79
2018-06-11T06:35:58.123Z,984.71
2018-06-11T06:36:58.130Z,984.71
2018-06-11T06:37:58.135Z,984.7
2018-06-11T06:38:58.147Z,984.66
2018-06-11T06:39:58.149Z,984.69
2018-06-11T06:40:58.157Z,984.65
2018-06-11T06:41:58.165Z,984.7
2018-06-11T06:42:58.166Z,984.7
2018-06-11T06:43:58.179Z,984.74
2018-06-11T06:44:58.179Z,984.78
2018-06-11T06:45:58.186Z,984.81
2018-06-11T06:46:58.191Z,984.89
2018-06-11T06:47:58.195Z,984.95
2018-06-11T06:48:58.201Z,984.95
2018-06-11T06:49:58.208Z,984.98
2018-06-11T06:50:58.216Z,985.04
2018-06-11T06:51:58.217Z,985.01
2018-06-11T06:52:58.247Z,985.04
2018-06-11T06:53:58.228Z,985.05
2018-06-11T06:54:58.238Z,985.11
2018-06-11T06:55:58.241Z,985.11
2018-06-11T06:56:58.245Z,985.18
2018-06-11T06:57:58.248Z,985.16
2018-06-11T06:58:58.258Z,985.15
2018-06-11T06:59:58.319Z,985.11
2018-06-11T07:00:58.268Z,985.13
2018-06-11T07:01:58.272Z,985.16
2018-06-11T07:02:58.275Z,985.08
2018-06-11T07:03:58.285Z,985.03
2018-06-11T07:04:58.289Z,985.04
2018-06-11T07:05:58.298Z,985.06
2018-06-11T07:06:58.300Z,984.99
2018-06-11T07:07:58.307Z,984.98
2018-06-11T07:08:58.312Z,984.95
2018-06-11T07:09:58.321Z,984.9
2018-06-11T07:10:58.324Z,984.89
2018-06-11T07:11:58.331Z,984.86
2018-06-11T07:12:58.337Z,984.79
2018-06-11T07:13:58.354Z,984.81
2018-06-11T07:14:58.349Z,984.8
2018-06-11T07:15:58.366Z,984.79
2018-06-11T07:16:58.359Z,984.85
2018-06-11T07:17:58.365Z,984.87
2018-06-11T07:18:58.374Z,984.86
2018-06-11T07:19:58.380Z,984.84
2018-06-11T07:20:58.382Z,984.85
2018-06-11T07:21:58.391Z,984.82
2018-06-11T07:22:58.395Z,984.81
2018-06-11T07:23:58.401Z,984.79
2018-06-11T07:24:58.406Z,984.81
2018-06-11T07:25:58.411Z,984.72
2018-06-11T07:26:58.418Z,984.77
2018-06-11T07:27:58.422Z,984.77
2018-06-11T07:28:58.430Z,984.78
2018-06-11T07:29:58.684Z,984.72
2018-06-11T07:30:58.443Z,984.74
2018-06-11T07:31:58.444Z,984.76
2018-06-11T07:32:58.451Z,984.75
2018-06-11T07:33:58.456Z,984.7
2018-06-11T07:34:58.505Z,984.69
2018-06-11T07:35:58.465Z,984.68
2018-06-11T07:36:58.480Z,984.67
2018-06-11T07:37:58.479Z,984.68
2018-06-11T07:38:58.483Z,984.63
2018-06-11T07:39:58.492Z,984.65
2018-06-11T07:40:58.558Z,984.65
2018-06-11T07:41:58.499Z,984.69
2018-06-11T07:42:58.505Z,984.65
2018-06-11T07:43:58.510Z,984.67
2018-06-11T07:44:58.513Z,984.69
2018-06-11T07:45:58.532Z,984.66
2018-06-11T07:46:58.524Z,984.63
2018-06-11T07:47:58.547Z,984.65
2018-06-11T07:48:58.535Z,984.61
2018-06-11T07:49:58.541Z,984.61
2018-06-11T07:50:58.543Z,984.62
2018-06-11T07:51:58.550Z,984.59
2018-06-11T07:52:58.556Z,984.59
2018-06-11T07:53:58.560Z,984.57
2018-06-11T07:54:58.566Z,984.63
2018-06-11T07:55:58.573Z,984.61
2018-06-11T07:56:58.577Z,984.61
2018-06-11T07:57:58.578Z,984.63
2018-06-11T07:58:58.584Z,984.6
2018-06-11T07:59:58.646Z,984.64
2018-06-11T08:00:58.595Z,984.63
2018-06-11T08:01:58.602Z,984.62
2018-06-11T08:02:58.604Z,984.67
2018-06-11T08:03:58.610Z,984.67
2018-06-11T08:04:58.615Z,984.6
2018-06-11T08:05:58.620Z,984.64
2018-06-11T08:06:58.628Z,984.65
2018-06-11T08:07:58.631Z,984.63
2018-06-11T08:08:58.634Z,984.63
2018-06-11T08:09:58.640Z,984.59
2018-06-11T08:10:58.646Z,984.57
2018-06-11T08:11:58.649Z,984.54
2018-06-11T08:12:58.660Z,984.51
2018-06-11T08:13:58.665Z,984.49
2018-06-11T08:14:58.717Z,984.43
2018-06-11T08:15:58.672Z,984.45
2018-06-11T08:16:58.679Z,984.46
2018-06-11T08:17:58.700Z,984.46
2018-06-11T08:18:58.687Z,984.45
2018-06-11T08:19:58.693Z,984.51
2018-06-11T08:20:58.697Z,984.48
2018-06-11T08:21:58.705Z,984.47
2018-06-11T08:22:58.708Z,984.46
2018-06-11T08:23:58.711Z,984.45
2018-06-11T08:24:58.721Z,984.45
2018-06-11T08:25:58.723Z,984.49
2018-06-11T08:26:58.730Z,984.45
2018-06-11T08:27:58.733Z,984.44
2018-06-11T08:28:58.745Z,984.45
2018-06-11T08:29:58.748Z,984.41
2018-06-11T08:30:58.752Z,984.47
2018-06-11T08:31:58.755Z,984.47
2018-06-11T08:32:58.764Z,984.45
2018-06-11T08:33:58.775Z,984.4
2018-06-11T08:34:58.772Z,984.4
2018-06-11T08:35:58.777Z,984.36
2018-06-11T08:36:58.782Z,984.42
2018-06-11T08:37:58.790Z,984.55
2018-06-11T08:38:58.798Z,984.5
2018-06-11T08:39:58.804Z,984.5
2018-06-11T08:40:58.811Z,984.53
2018-06-11T08:41:58.814Z,984.55
2018-06-11T08:42:58.818Z,984.46
2018-06-11T08:43:58.825Z,984.46
2018-06-11T08:44:59.647Z,984.47
2018-06-11T08:45:58.844Z,984.42
2018-06-11T08:46:58.848Z,984.47
2018-06-11T08:47:58.854Z,984.42
2018-06-11T08:48:58.859Z,984.45
2018-06-11T08:49:58.874Z,984.45
2018-06-11T08:50:58.873Z,984.44
2018-06-11T08:51:58.878Z,984.41
2018-06-11T08:52:58.883Z,984.34
2018-06-11T08:53:58.899Z,984.39
2018-06-11T08:54:58.901Z,984.44
2018-06-11T08:55:58.920Z,984.43
2018-06-11T08:56:58.910Z,984.42
2018-06-11T08:57:58.916Z,984.4
2018-06-11T08:58:58.925Z,984.42
2018-06-11T08:59:58.959Z,984.43
2018-06-11T09:00:58.937Z,984.45
2018-06-11T09:01:58.948Z,984.44
2018-06-11T09:02:58.951Z,984.44
2018-06-11T09:03:58.961Z,984.47
2018-06-11T09:04:58.965Z,984.46
2018-06-11T09:05:58.969Z,984.48
2018-06-11T09:06:58.987Z,984.47
2018-06-11T09:07:58.982Z,984.49
2018-06-11T09:08:58.986Z,984.52
2018-06-11T09:09:58.996Z,984.52
2018-06-11T09:10:59.002Z,984.55
2018-06-11T09:11:59.007Z,984.55
2018-06-11T09:12:59.020Z,984.56
2018-06-11T09:13:59.019Z,984.56
2018-06-11T09:14:59.029Z,984.62
2018-06-11T09:15:59.037Z,984.58
2018-06-11T09:16:59.040Z,984.59
2018-06-11T09:17:59.157Z,984.55
2018-06-11T09:18:59.050Z,984.59
2018-06-11T09:19:59.059Z,984.53
2018-06-11T09:20:59.065Z,984.51
2018-06-11T09:21:59.072Z,984.46
2018-06-11T09:22:59.097Z,984.46
2018-06-11T09:23:59.082Z,984.44
2018-06-11T09:24:59.118Z,984.42
2018-06-11T09:25:59.104Z,984.46
2018-06-11T09:26:59.103Z,984.43
2018-06-11T09:27:59.117Z,984.41
2018-06-11T09:28:59.124Z,984.41
2018-06-11T09:29:59.124Z,984.38
2018-06-11T09:30:59.185Z,984.36
2018-06-11T09:31:59.135Z,984.34
2018-06-11T09:32:59.145Z,984.35
2018-06-11T09:33:59.151Z,984.33
2018-06-11T09:34:59.179Z,984.3
2018-06-11T09:35:59.160Z,984.28
2018-06-11T09:36:59.175Z,984.28
2018-06-11T09:37:59.176Z,984.29
2018-06-11T09:38:59.178Z,984.27
2018-06-11T09:39:59.185Z,984.26
2018-06-11T09:40:59.189Z,984.28
2018-06-11T09:41:59.201Z,984.3
2018-06-11T09:42:59.204Z,984.31
2018-06-11T09:43:59.249Z,984.31
2018-06-11T09:44:59.219Z,984.28
2018-06-11T09:45:59.231Z,984.31
2018-06-11T09:46:59.232Z,984.3
2018-06-11T09:47:59.241Z,984.34
2018-06-11T09:48:59.243Z,984.36
2018-06-11T09:49:59.249Z,984.35
2018-06-11T09:50:59.248Z,984.36
2018-06-11T09:51:59.255Z,984.37
2018-06-11T09:52:59.261Z,984.38
2018-06-11T09:53:59.268Z,984.32
2018-06-11T09:54:59.276Z,984.27
2018-06-11T09:55:59.278Z,984.29
2018-06-11T09:56:59.301Z,984.31
2018-06-11T09:57:59.290Z,984.28
2018-06-11T09:58:59.295Z,984.3
2018-06-11T09:59:59.304Z,984.3
2018-06-11T10:00:59.320Z,984.3
2018-06-11T10:01:59.312Z,984.31
2018-06-11T10:02:59.319Z,984.31
2018-06-11T10:03:59.324Z,984.3
2018-06-11T10:04:59.330Z,984.31
2018-06-11T10:05:59.333Z,984.3
2018-06-11T10:06:59.341Z,984.3
2018-06-11T10:07:59.348Z,984.29
2018-06-11T10:08:59.351Z,984.34
2018-06-11T10:09:59.361Z,984.3
2018-06-11T10:10:59.369Z,984.3
2018-06-11T10:11:59.370Z,984.33
2018-06-11T10:12:59.384Z,984.33
2018-06-11T10:13:59.384Z,984.31
2018-06-11T10:14:59.389Z,984.28
2018-06-11T10:15:59.392Z,984.31
2018-06-11T10:16:59.399Z,984.31
2018-06-11T10:17:59.402Z,984.3
2018-06-11T10:18:59.408Z,984.3
2018-06-11T10:19:59.414Z,984.26
2018-06-11T10:20:59.419Z,984.26
2018-06-11T10:21:59.431Z,984.3
2018-06-11T10:53:24.212Z,983.73
2018-06-11T10:54:24.221Z,983.76
2018-06-11T10:55:24.216Z,983.76
2018-06-11T10:56:24.267Z,983.75
2018-06-11T10:57:24.225Z,983.78
2018-06-11T10:58:24.230Z,983.74
2018-06-11T10:59:24.233Z,983.71
2018-06-11T11:00:24.238Z,983.7
2018-06-11T11:01:24.240Z,983.7
2018-06-11T11:02:24.250Z,983.65
2018-06-11T11:03:24.251Z,983.66
2018-06-11T11:04:24.256Z,983.67
2018-06-11T11:05:24.265Z,983.61
2018-06-11T11:06:24.275Z,983.57
2018-06-11T11:07:24.277Z,983.56
2018-06-11T11:08:24.286Z,983.51
2018-06-11T11:09:24.293Z,983.52
2018-06-11T11:10:24.296Z,983.52
2018-06-11T11:11:24.337Z,983.47
2018-06-11T11:12:24.315Z,983.49
2018-06-11T11:13:24.317Z,983.5
2018-06-11T11:14:24.365Z,983.51
2018-06-11T11:15:24.327Z,983.53
2018-06-11T11:16:24.331Z,983.51
2018-06-11T11:17:24.344Z,983.5
2018-06-11T11:18:24.351Z,983.49
2018-06-11T11:19:24.349Z,983.45
2018-06-11T11:20:24.364Z,983.43
2018-06-11T11:21:24.366Z,983.41
2018-06-11T11:22:24.376Z,983.34
2018-06-11T11:23:24.387Z,983.32
2018-06-11T11:24:24.387Z,983.29
2018-06-11T11:25:24.391Z,983.28
2018-06-11T11:26:24.399Z,983.29
2018-06-11T11:27:24.406Z,983.28
2018-06-11T11:28:25.212Z,983.26
2018-06-11T11:29:24.421Z,983.3
2018-06-11T11:30:24.422Z,983.3
2018-06-11T11:31:24.493Z,983.37
2018-06-11T11:32:24.440Z,983.36
2018-06-11T11:33:24.442Z,983.35
2018-06-11T11:34:24.449Z,983.41
2018-06-11T11:35:24.456Z,983.42
2018-06-11T11:36:24.464Z,983.44
2018-06-11T11:37:24.473Z,983.34
2018-06-11T11:38:24.479Z,983.37
2018-06-11T11:39:24.491Z,983.28
2018-06-11T11:40:24.494Z,983.28
2018-06-11T11:41:24.518Z,983.27
2018-06-11T11:42:24.499Z,983.26
2018-06-11T11:43:24.516Z,983.27
2018-06-11T11:44:24.512Z,983.28
2018-06-11T11:45:24.521Z,983.33
2018-06-11T11:46:24.528Z,983.27
2018-06-11T11:47:24.533Z,983.28
2018-06-11T11:48:24.540Z,983.31
2018-06-11T11:49:24.560Z,983.32
2018-06-11T11:50:24.569Z,983.27
2018-06-11T11:51:24.653Z,983.28
2018-06-11T11:52:24.567Z,983.23
2018-06-11T11:53:24.576Z,983.24
2018-06-11T11:54:24.577Z,983.22
2018-06-11T11:55:24.586Z,983.27
2018-06-11T11:56:24.600Z,983.29
2018-06-11T11:57:24.663Z,983.28
2018-06-11T11:58:24.607Z,983.26
2018-06-11T11:59:24.618Z,983.21
2018-06-11T12:00:24.628Z,983.11
2018-06-11T12:01:24.626Z,983.08
2018-06-11T12:02:24.641Z,983.06
2018-06-11T12:03:24.650Z,983.05
2018-06-11T12:04:24.651Z,983.04
2018-06-11T12:05:24.655Z,983.01
2018-06-11T12:06:24.663Z,983.03
2018-06-11T12:07:24.671Z,983
2018-06-11T12:08:24.681Z,983.01
2018-06-11T12:09:24.699Z,982.98
2018-06-11T12:10:24.690Z,982.99
2018-06-11T12:11:24.696Z,982.96
2018-06-11T12:12:24.704Z,982.94
2018-06-11T12:13:24.710Z,982.94
2018-06-11T12:14:24.719Z,982.96
2018-06-11T12:15:24.722Z,982.94
2018-06-11T12:16:24.793Z,982.95
2018-06-11T12:17:24.737Z,982.93
2018-06-11T12:18:24.743Z,982.91
2018-06-11T12:19:24.752Z,982.91
2018-06-11T12:20:24.759Z,982.88
2018-06-11T12:21:24.763Z,982.94
2018-06-11T12:22:24.773Z,982.93
2018-06-11T12:23:24.780Z,982.94
2018-06-11T12:24:24.786Z,982.93
2018-06-11T12:25:24.797Z,982.9
2018-06-11T12:26:24.804Z,982.89
2018-06-11T12:27:24.808Z,982.85
2018-06-11T12:28:24.825Z,982.83
2018-06-11T12:29:24.822Z,982.74
2018-06-11T12:30:24.830Z,982.72
2018-06-11T12:31:24.836Z,982.71
2018-06-11T12:32:24.844Z,982.7
2018-06-11T12:33:24.852Z,982.67
2018-06-11T12:34:24.867Z,982.66
2018-06-11T12:35:24.869Z,982.65
2018-06-11T12:36:24.888Z,982.64
2018-06-11T12:37:24.896Z,982.64
2018-06-11T12:38:24.888Z,982.65
2018-06-11T12:39:24.898Z,982.63
2018-06-11T12:40:24.901Z,982.59
2018-06-11T12:41:24.908Z,982.55
2018-06-11T12:42:24.916Z,982.5
2018-06-11T12:43:24.928Z,982.43
2018-06-11T12:44:24.932Z,982.42
2018-06-11T12:45:24.953Z,982.36
2018-06-11T12:46:25.004Z,982.32
2018-06-11T12:47:24.953Z,982.33
2018-06-11T12:48:24.966Z,982.29
2018-06-11T12:49:24.965Z,982.28
2018-06-11T12:50:24.974Z,982.22
2018-06-11T12:51:25.006Z,982.14
2018-06-11T12:52:24.985Z,982.25
2018-06-11T12:53:24.989Z,982.2
2018-06-11T12:54:24.997Z,982.22
2018-06-11T12:55:25.004Z,982.2
2018-06-11T12:56:25.060Z,982.25
2018-06-11T12:57:25.020Z,982.2
2018-06-11T12:58:25.024Z,982.2
2018-06-11T12:59:25.038Z,982.24
2018-06-11T13:00:25.034Z,982.22
2018-06-11T13:01:25.152Z,982.2
2018-06-11T13:02:25.050Z,982.19